Aérodrome :
LOGIN :

S'inscrire | Disclaimer

   EN    FR    IT 

 










Légende :    VFR   VFR Marginal   IFR   IFR Intensif   IFR Très Intensif
Visi : 
Plafond : 
>= 8 km
>= 3000ft
5 à 8 km
1000 à 3000 ft
1500m à 5 km
500 à 1000 ft
800 à 1500m
200 à 500 ft
< 800m
< 200 ft
Symboles :   Orages  Brouillard  Fortes neiges  Fortes précipitations  Vent > 20 kt
SIGMETs :   Divers  Orages  Givrage  Turbulence  Onde Orograph.  Cendres Volcan.







- Altitude de l'aérodrome : -15 ft
- Code IATA : RTM


EHRD - Rotterdam Zestienhoven

DERNIER METAR :
  • 172255Z AUTO 29005KT 260V330 9999 FEW015CB 01/M01 Q1014 NOSIG

METARs EXPIRÉS :
  • 172225Z AUTO 35008KT 320V030 9999 FEW015CB 02/00 Q1014 NOSIG
  • 172155Z AUTO 34012G26KT 300V020 9999 FEW015CB SCT022 BKN029 03/M00 Q1013 NOSIG
  • 172125Z AUTO 33007KT 9999 NCD 02/M00 Q1012 NOSIG
  • 172055Z AUTO 31005KT 270V350 9999 NCD 01/M00 Q1012 NOSIG
  • 172025Z AUTO 33006KT 300V360 9999 -RA FEW004 FEW015CB BKN023 BKN027 03/01 Q1012 NOSIG

TAF TAF EHRD
Valide du 17 à 18h jusqu'au 19 à 00h UTC


171659Z 1718/1824 32007KT 9999 FEW025
TEMPO 1718/1722 34017G27KT 5000 SHRAGS SHRASN FEW012 SCT022CB BKN030
BECMG 1803/1806 20005KT
Pas de NOTAMs connus pour ce terrain.



MET'MAP, la Météo Aéronautique d'un coup d'oeil ! - Copyright ORBIFLY Décembre 2007 - Disclaimer

ORBIFLY MET'MAP TEAM :

Programmation & Développement : Alexandra Zaïnal
Conception & Développement : Baudouin d'Aumeries
Co-Programmation & Développement : Marc-Olivier Méhu
Soutien technique & logistique : Manuel Goepfert

Contact : metmap@orbifly.com




SOURCES & CREDITS :

   NOAA